METAR Data
IDs: Format: Raw Decoded Include TAF

Data at: 0816 UTC 01 Aug 2021

LJPZ 010800Z 18005KT 120V220 9999 FEW042TCU SCT150 29/19 Q1004